sensor_id;sensor_type;location;lat;lon;timestamp;pressure;altitude;pressure_sealevel;temperature;humidity
57038;BME280;59942;49.304;8.256;2022-10-31T00:00:03;100788.44;;;12.14;74.23
57038;BME280;59942;49.304;8.256;2022-10-31T00:02:35;100814.47;;;12.35;76.21
57038;BME280;59942;49.304;8.256;2022-10-31T00:05:28;100822.75;;;12.43;80.67
57038;BME280;59942;49.304;8.256;2022-10-31T00:07:59;100823.31;;;12.31;80.84
57038;BME280;59942;49.304;8.256;2022-10-31T00:10:29;100815.94;;;12.20;76.37
57038;BME280;59942;49.304;8.256;2022-10-31T00:13:01;100822.72;;;12.24;81.43
57038;BME280;59942;49.304;8.256;2022-10-31T00:15:36;100787.41;;;11.98;82.10
57038;BME280;59942;49.304;8.256;2022-10-31T00:18:24;100812.63;;;11.74;77.33
57038;BME280;59942;49.304;8.256;2022-10-31T00:21:04;100804.41;;;11.85;77.87
57038;BME280;59942;49.304;8.256;2022-10-31T00:23:35;100778.91;;;11.72;82.38
57038;BME280;59942;49.304;8.256;2022-10-31T00:26:08;100809.97;;;11.75;82.72
57038;BME280;59942;49.304;8.256;2022-10-31T00:28:42;100813.97;;;11.62;77.93
57038;BME280;59942;49.304;8.256;2022-10-31T00:31:11;100819.25;;;11.81;77.43
57038;BME280;59942;49.304;8.256;2022-10-31T00:33:44;100814.50;;;11.70;82.86
57038;BME280;59942;49.304;8.256;2022-10-31T00:36:14;100822.78;;;11.36;85.66
57038;BME280;59942;49.304;8.256;2022-10-31T00:38:52;100829.06;;;11.52;80.24
57038;BME280;59942;49.304;8.256;2022-10-31T00:41:19;100827.66;;;11.65;77.57
57038;BME280;59942;49.304;8.256;2022-10-31T00:44:01;100806.50;;;11.54;79.52
57038;BME280;59942;49.304;8.256;2022-10-31T00:46:40;100828.88;;;11.57;83.37
57038;BME280;59942;49.304;8.256;2022-10-31T00:49:07;100794.59;;;10.81;82.74
57038;BME280;59942;49.304;8.256;2022-10-31T00:51:45;100831.38;;;10.90;88.18
57038;BME280;59942;49.304;8.256;2022-10-31T00:54:18;100827.56;;;10.77;88.86
57038;BME280;59942;49.304;8.256;2022-10-31T00:57:02;100824.13;;;10.76;83.03
57038;BME280;59942;49.304;8.256;2022-10-31T00:59:32;100815.81;;;10.90;80.77
57038;BME280;59942;49.304;8.256;2022-10-31T01:02:02;100821.25;;;11.08;82.64
57038;BME280;59942;49.304;8.256;2022-10-31T01:07:25;100830.50;;;11.37;83.99
57038;BME280;59942;49.304;8.256;2022-10-31T01:09:58;100829.38;;;11.22;83.16
57038;BME280;59942;49.304;8.256;2022-10-31T01:12:28;100835.09;;;10.59;86.76
57038;BME280;59942;49.304;8.256;2022-10-31T01:14:58;100830.78;;;10.58;84.33
57038;BME280;59942;49.304;8.256;2022-10-31T01:17:28;100832.13;;;10.70;87.64
57038;BME280;59942;49.304;8.256;2022-10-31T01:19:58;100827.09;;;10.66;80.60
57038;BME280;59942;49.304;8.256;2022-10-31T01:22:48;100835.56;;;10.71;81.40
57038;BME280;59942;49.304;8.256;2022-10-31T01:25:15;100821.13;;;10.87;86.40
57038;BME280;59942;49.304;8.256;2022-10-31T01:28:00;100834.72;;;10.94;78.46
57038;BME280;59942;49.304;8.256;2022-10-31T01:30:33;100829.75;;;11.11;77.62
57038;BME280;59942;49.304;8.256;2022-10-31T01:33:07;100800.06;;;11.19;79.36
57038;BME280;59942;49.304;8.256;2022-10-31T01:35:38;100824.53;;;11.35;77.75
57038;BME280;59942;49.304;8.256;2022-10-31T01:38:17;100830.63;;;11.34;75.55
57038;BME280;59942;49.304;8.256;2022-10-31T01:40:51;100831.41;;;11.36;75.08
57038;BME280;59942;49.304;8.256;2022-10-31T01:43:20;100826.78;;;11.44;75.48
57038;BME280;59942;49.304;8.256;2022-10-31T01:46:10;100819.09;;;11.41;74.46
57038;BME280;59942;49.304;8.256;2022-10-31T01:48:44;100823.09;;;11.50;76.73
57038;BME280;59942;49.304;8.256;2022-10-31T01:51:20;100824.00;;;11.49;78.53
57038;BME280;59942;49.304;8.256;2022-10-31T01:53:54;100826.34;;;11.55;79.82
57038;BME280;59942;49.304;8.256;2022-10-31T01:56:48;100816.63;;;11.38;78.14
57038;BME280;59942;49.304;8.256;2022-10-31T01:59:27;100819.09;;;11.41;78.87
57038;BME280;59942;49.304;8.256;2022-10-31T02:02:02;100826.84;;;11.43;83.95
57038;BME280;59942;49.304;8.256;2022-10-31T02:04:55;100825.13;;;11.42;83.22
57038;BME280;59942;49.304;8.256;2022-10-31T02:07:38;100824.50;;;11.37;84.46
57038;BME280;59942;49.304;8.256;2022-10-31T02:10:09;100820.78;;;11.42;85.03
57038;BME280;59942;49.304;8.256;2022-10-31T02:12:47;100820.44;;;11.29;84.84
57038;BME280;59942;49.304;8.256;2022-10-31T02:15:20;100793.41;;;11.11;85.29
57038;BME280;59942;49.304;8.256;2022-10-31T02:17:52;100812.16;;;11.20;83.68
57038;BME280;59942;49.304;8.256;2022-10-31T02:29:40;100798.91;;;11.04;78.97
57038;BME280;59942;49.304;8.256;2022-10-31T02:33:01;100794.91;;;10.95;76.73
57038;BME280;59942;49.304;8.256;2022-10-31T02:35:54;100807.16;;;11.13;77.35
57038;BME280;59942;49.304;8.256;2022-10-31T02:38:45;100812.97;;;11.20;82.21
57038;BME280;59942;49.304;8.256;2022-10-31T02:41:32;100813.47;;;11.30;82.53
57038;BME280;59942;49.304;8.256;2022-10-31T02:44:33;100794.50;;;11.06;82.77
57038;BME280;59942;49.304;8.256;2022-10-31T02:47:12;100807.66;;;11.01;82.90
57038;BME280;59942;49.304;8.256;2022-10-31T02:50:00;100807.25;;;10.88;84.34
57038;BME280;59942;49.304;8.256;2022-10-31T02:52:41;100814.59;;;10.77;83.45
57038;BME280;59942;49.304;8.256;2022-10-31T02:58:14;100805.75;;;10.32;88.46
57038;BME280;59942;49.304;8.256;2022-10-31T03:06:57;100819.47;;;9.84;89.56
57038;BME280;59942;49.304;8.256;2022-10-31T03:15:32;100816.41;;;9.98;87.46
57038;BME280;59942;49.304;8.256;2022-10-31T03:18:15;100814.53;;;9.76;89.23
57038;BME280;59942;49.304;8.256;2022-10-31T03:20:53;100822.84;;;9.59;90.84
57038;BME280;59942;49.304;8.256;2022-10-31T03:23:29;100813.28;;;9.33;92.99
57038;BME280;59942;49.304;8.256;2022-10-31T03:26:04;100819.13;;;9.39;91.86
57038;BME280;59942;49.304;8.256;2022-10-31T03:29:02;100811.72;;;9.84;85.42
57038;BME280;59942;49.304;8.256;2022-10-31T03:31:36;100776.88;;;9.93;83.73
57038;BME280;59942;49.304;8.256;2022-10-31T03:34:09;100805.22;;;10.22;82.10
57038;BME280;59942;49.304;8.256;2022-10-31T03:36:49;100804.94;;;10.32;84.65
57038;BME280;59942;49.304;8.256;2022-10-31T03:39:19;100809.88;;;10.39;86.09
57038;BME280;59942;49.304;8.256;2022-10-31T03:41:59;100815.09;;;10.38;80.20
57038;BME280;59942;49.304;8.256;2022-10-31T03:44:31;100810.66;;;10.41;78.26
57038;BME280;59942;49.304;8.256;2022-10-31T03:47:11;100806.69;;;10.30;77.30
57038;BME280;59942;49.304;8.256;2022-10-31T03:49:40;100815.50;;;10.25;77.63
57038;BME280;59942;49.304;8.256;2022-10-31T03:52:43;100819.72;;;10.28;79.44
57038;BME280;59942;49.304;8.256;2022-10-31T03:55:34;100789.72;;;9.96;77.85
57038;BME280;59942;49.304;8.256;2022-10-31T03:58:12;100822.94;;;10.09;78.86
57038;BME280;59942;49.304;8.256;2022-10-31T04:00:43;100818.56;;;10.12;78.70
57038;BME280;59942;49.304;8.256;2022-10-31T04:05:51;100799.00;;;10.03;78.66
57038;BME280;59942;49.304;8.256;2022-10-31T04:08:24;100815.22;;;10.08;78.57
57038;BME280;59942;49.304;8.256;2022-10-31T04:10:54;100826.13;;;10.18;78.35
57038;BME280;59942;49.304;8.256;2022-10-31T04:13:31;100819.22;;;10.17;78.57
57038;BME280;59942;49.304;8.256;2022-10-31T04:15:59;100821.09;;;10.13;78.54
57038;BME280;59942;49.304;8.256;2022-10-31T04:18:29;100821.53;;;10.26;78.91
57038;BME280;59942;49.304;8.256;2022-10-31T04:21:01;100826.13;;;10.18;78.97
57038;BME280;59942;49.304;8.256;2022-10-31T04:23:28;100830.44;;;10.44;85.11
57038;BME280;59942;49.304;8.256;2022-10-31T04:25:57;100803.50;;;10.23;87.36
57038;BME280;59942;49.304;8.256;2022-10-31T04:28:27;100827.72;;;10.22;89.04
57038;BME280;59942;49.304;8.256;2022-10-31T04:30:54;100829.56;;;10.18;89.92
57038;BME280;59942;49.304;8.256;2022-10-31T04:33:21;100829.09;;;10.07;90.46
57038;BME280;59942;49.304;8.256;2022-10-31T04:35:54;100832.50;;;10.07;89.00
57038;BME280;59942;49.304;8.256;2022-10-31T04:38:21;100822.97;;;10.08;87.45
57038;BME280;59942;49.304;8.256;2022-10-31T04:40:48;100834.00;;;10.15;89.86
57038;BME280;59942;49.304;8.256;2022-10-31T04:43:15;100822.16;;;10.07;89.90
57038;BME280;59942;49.304;8.256;2022-10-31T04:45:52;100801.91;;;9.92;89.54
57038;BME280;59942;49.304;8.256;2022-10-31T04:48:25;100829.19;;;10.04;86.13
57038;BME280;59942;49.304;8.256;2022-10-31T04:50:52;100822.19;;;10.06;84.38
57038;BME280;59942;49.304;8.256;2022-10-31T04:53:24;100819.00;;;9.98;82.46
57038;BME280;59942;49.304;8.256;2022-10-31T04:55:51;100817.66;;;10.13;85.08
57038;BME280;59942;49.304;8.256;2022-10-31T04:58:18;100816.19;;;10.31;85.51
57038;BME280;59942;49.304;8.256;2022-10-31T05:00:45;100787.09;;;9.97;82.46
57038;BME280;59942;49.304;8.256;2022-10-31T05:03:12;100814.81;;;10.20;85.84
57038;BME280;59942;49.304;8.256;2022-10-31T05:05:42;100806.31;;;10.15;82.21
57038;BME280;59942;49.304;8.256;2022-10-31T05:08:10;100799.19;;;10.22;82.62
57038;BME280;59942;49.304;8.256;2022-10-31T05:10:41;100805.28;;;10.21;87.40
57038;BME280;59942;49.304;8.256;2022-10-31T05:13:08;100799.94;;;10.00;91.78
57038;BME280;59942;49.304;8.256;2022-10-31T05:15:36;100802.63;;;9.97;86.24
57038;BME280;59942;49.304;8.256;2022-10-31T05:18:03;100795.19;;;9.88;89.49
57038;BME280;59942;49.304;8.256;2022-10-31T05:20:30;100799.34;;;9.37;93.68
57038;BME280;59942;49.304;8.256;2022-10-31T05:22:58;100798.22;;;9.46;95.21
57038;BME280;59942;49.304;8.256;2022-10-31T05:25:31;100798.94;;;9.51;87.82
57038;BME280;59942;49.304;8.256;2022-10-31T05:27:58;100791.38;;;9.71;89.90
57038;BME280;59942;49.304;8.256;2022-10-31T05:30:30;100788.47;;;9.26;94.34
57038;BME280;59942;49.304;8.256;2022-10-31T05:33:01;100777.16;;;9.30;89.63
57038;BME280;59942;49.304;8.256;2022-10-31T05:35:31;100800.84;;;9.44;84.20
57038;BME280;59942;49.304;8.256;2022-10-31T05:38:01;100789.00;;;9.65;90.16
57038;BME280;59942;49.304;8.256;2022-10-31T05:40:34;100784.66;;;9.66;83.81
57038;BME280;59942;49.304;8.256;2022-10-31T05:43:01;100788.84;;;9.43;90.90
57038;BME280;59942;49.304;8.256;2022-10-31T05:45:34;100788.78;;;9.71;89.78
57038;BME280;59942;49.304;8.256;2022-10-31T05:48:08;100783.09;;;9.60;83.12
57038;BME280;59942;49.304;8.256;2022-10-31T05:50:35;100784.16;;;9.81;81.25
57038;BME280;59942;49.304;8.256;2022-10-31T05:53:05;100792.72;;;9.83;80.07
57038;BME280;59942;49.304;8.256;2022-10-31T05:55:32;100765.78;;;9.62;79.33
57038;BME280;59942;49.304;8.256;2022-10-31T05:57:59;100802.97;;;9.86;87.97
57038;BME280;59942;49.304;8.256;2022-10-31T06:00:33;100796.13;;;9.85;84.72
57038;BME280;59942;49.304;8.256;2022-10-31T06:03:07;100777.53;;;9.72;79.77
57038;BME280;59942;49.304;8.256;2022-10-31T06:05:39;100751.69;;;9.44;78.48
57038;BME280;59942;49.304;8.256;2022-10-31T06:08:06;100688.66;;;9.18;81.71
57038;BME280;59942;49.304;8.256;2022-10-31T06:10:36;100780.84;;;9.76;80.27
57038;BME280;59942;49.304;8.256;2022-10-31T06:13:06;100786.44;;;9.90;84.34
57038;BME280;59942;49.304;8.256;2022-10-31T06:15:33;100786.03;;;9.76;80.72
57038;BME280;59942;49.304;8.256;2022-10-31T06:18:04;100775.50;;;9.82;79.00
57038;BME280;59942;49.304;8.256;2022-10-31T06:20:34;100779.72;;;9.85;77.81
57038;BME280;59942;49.304;8.256;2022-10-31T06:23:01;100779.72;;;9.85;80.83
57038;BME280;59942;49.304;8.256;2022-10-31T06:25:29;100771.59;;;9.69;86.91
57038;BME280;59942;49.304;8.256;2022-10-31T06:27:56;100784.69;;;9.64;82.41
57038;BME280;59942;49.304;8.256;2022-10-31T06:30:24;100796.06;;;9.87;85.76
57038;BME280;59942;49.304;8.256;2022-10-31T06:32:51;100781.34;;;9.87;87.08
57038;BME280;59942;49.304;8.256;2022-10-31T06:35:18;100784.88;;;9.85;80.09
57038;BME280;59942;49.304;8.256;2022-10-31T06:37:55;100780.31;;;9.93;78.10
57038;BME280;59942;49.304;8.256;2022-10-31T06:40:22;100781.63;;;10.05;84.11
57038;BME280;59942;49.304;8.256;2022-10-31T06:42:59;100787.19;;;10.19;84.27
57038;BME280;59942;49.304;8.256;2022-10-31T06:45:26;100783.94;;;10.14;85.24
57038;BME280;59942;49.304;8.256;2022-10-31T06:47:54;100793.69;;;10.06;83.83
57038;BME280;59942;49.304;8.256;2022-10-31T06:50:41;100779.97;;;10.02;83.79
57038;BME280;59942;49.304;8.256;2022-10-31T06:53:11;100808.88;;;10.17;82.68
57038;BME280;59942;49.304;8.256;2022-10-31T06:55:41;100801.97;;;10.17;83.88
57038;BME280;59942;49.304;8.256;2022-10-31T06:58:12;100797.00;;;10.09;83.47
57038;BME280;59942;49.304;8.256;2022-10-31T07:00:42;100800.16;;;9.94;79.89
57038;BME280;59942;49.304;8.256;2022-10-31T07:03:11;100760.97;;;9.78;80.27
57038;BME280;59942;49.304;8.256;2022-10-31T07:05:42;100803.28;;;10.04;81.00
57038;BME280;59942;49.304;8.256;2022-10-31T07:08:16;100795.69;;;9.98;78.72
57038;BME280;59942;49.304;8.256;2022-10-31T07:10:51;100792.44;;;9.93;86.46
57038;BME280;59942;49.304;8.256;2022-10-31T07:13:19;100805.22;;;9.97;87.72
57038;BME280;59942;49.304;8.256;2022-10-31T07:16:00;100804.53;;;9.65;90.46
57038;BME280;59942;49.304;8.256;2022-10-31T07:18:27;100802.13;;;9.59;91.80
57038;BME280;59942;49.304;8.256;2022-10-31T07:20:54;100813.78;;;9.99;86.63
57038;BME280;59942;49.304;8.256;2022-10-31T07:23:21;100823.13;;;10.30;87.39
57038;BME280;59942;49.304;8.256;2022-10-31T07:25:48;100817.53;;;10.42;87.33
57038;BME280;59942;49.304;8.256;2022-10-31T07:28:25;100825.91;;;10.51;85.40
57038;BME280;59942;49.304;8.256;2022-10-31T07:30:56;100810.28;;;10.52;85.44
57038;BME280;59942;49.304;8.256;2022-10-31T07:33:26;100802.94;;;10.40;82.08
57038;BME280;59942;49.304;8.256;2022-10-31T07:35:54;100802.72;;;10.46;81.03
57038;BME280;59942;49.304;8.256;2022-10-31T07:38:24;100807.34;;;10.62;79.97
57038;BME280;59942;49.304;8.256;2022-10-31T07:40:52;100804.38;;;10.96;81.73
57038;BME280;59942;49.304;8.256;2022-10-31T07:43:22;100790.41;;;10.76;80.20
57038;BME280;59942;49.304;8.256;2022-10-31T07:45:51;100801.44;;;11.05;82.13
57038;BME280;59942;49.304;8.256;2022-10-31T07:48:22;100800.56;;;11.06;80.68
57038;BME280;59942;49.304;8.256;2022-10-31T07:50:51;100805.75;;;11.28;84.93
57038;BME280;59942;49.304;8.256;2022-10-31T07:53:18;100805.88;;;11.25;80.61
57038;BME280;59942;49.304;8.256;2022-10-31T07:55:44;100807.59;;;11.25;80.27
57038;BME280;59942;49.304;8.256;2022-10-31T07:58:14;100806.66;;;11.50;80.89
57038;BME280;59942;49.304;8.256;2022-10-31T08:00:44;100818.47;;;11.57;80.48
57038;BME280;59942;49.304;8.256;2022-10-31T08:03:14;100810.38;;;11.87;82.39
57038;BME280;59942;49.304;8.256;2022-10-31T08:05:41;100814.06;;;12.03;83.66
57038;BME280;59942;49.304;8.256;2022-10-31T08:08:08;100808.34;;;12.15;83.36
57038;BME280;59942;49.304;8.256;2022-10-31T08:10:38;100808.69;;;12.28;82.32
57038;BME280;59942;49.304;8.256;2022-10-31T08:13:25;100804.56;;;12.23;79.77
57038;BME280;59942;49.304;8.256;2022-10-31T08:15:57;100800.41;;;12.39;81.54
57038;BME280;59942;49.304;8.256;2022-10-31T08:18:33;100791.69;;;12.40;79.57
57038;BME280;59942;49.304;8.256;2022-10-31T08:21:04;100810.06;;;12.56;79.74
57038;BME280;59942;49.304;8.256;2022-10-31T08:23:31;100772.97;;;12.53;81.05
57038;BME280;59942;49.304;8.256;2022-10-31T08:26:00;100818.38;;;12.64;82.81
57038;BME280;59942;49.304;8.256;2022-10-31T08:28:30;100811.44;;;12.84;83.45
57038;BME280;59942;49.304;8.256;2022-10-31T08:30:58;100808.28;;;12.77;82.51
57038;BME280;59942;49.304;8.256;2022-10-31T08:33:25;100812.50;;;12.80;84.86
57038;BME280;59942;49.304;8.256;2022-10-31T08:35:52;100804.34;;;12.68;82.69
57038;BME280;59942;49.304;8.256;2022-10-31T08:38:19;100796.63;;;12.86;81.85
57038;BME280;59942;49.304;8.256;2022-10-31T08:40:50;100789.94;;;12.80;84.38
57038;BME280;59942;49.304;8.256;2022-10-31T08:43:20;100805.25;;;13.06;81.80
57038;BME280;59942;49.304;8.256;2022-10-31T08:45:50;100796.59;;;13.05;84.13
57038;BME280;59942;49.304;8.256;2022-10-31T08:48:19;100797.78;;;13.17;84.24
57038;BME280;59942;49.304;8.256;2022-10-31T08:50:46;100805.38;;;13.21;84.44
57038;BME280;59942;49.304;8.256;2022-10-31T08:53:16;100777.63;;;13.03;83.66
57038;BME280;59942;49.304;8.256;2022-10-31T08:55:44;100800.75;;;13.28;82.46
57038;BME280;59942;49.304;8.256;2022-10-31T08:58:17;100789.34;;;13.31;84.39
57038;BME280;59942;49.304;8.256;2022-10-31T09:00:52;100790.25;;;13.49;82.56
57038;BME280;59942;49.304;8.256;2022-10-31T09:03:26;100793.63;;;13.13;85.47
57038;BME280;59942;49.304;8.256;2022-10-31T09:06:01;100793.06;;;13.44;84.73
57038;BME280;59942;49.304;8.256;2022-10-31T09:08:38;100787.53;;;13.87;82.20
57038;BME280;59942;49.304;8.256;2022-10-31T09:11:08;100786.75;;;14.02;83.00
57038;BME280;59942;49.304;8.256;2022-10-31T09:13:35;100785.09;;;14.01;84.10
57038;BME280;59942;49.304;8.256;2022-10-31T09:16:10;100791.91;;;14.21;84.00
57038;BME280;59942;49.304;8.256;2022-10-31T09:18:38;100731.25;;;14.00;83.46
57038;BME280;59942;49.304;8.256;2022-10-31T09:21:09;100779.38;;;14.28;83.19
57038;BME280;59942;49.304;8.256;2022-10-31T09:23:35;100749.84;;;14.28;83.33
57038;BME280;59942;49.304;8.256;2022-10-31T09:26:06;100768.94;;;14.62;84.66
57038;BME280;59942;49.304;8.256;2022-10-31T09:28:36;100774.34;;;14.74;84.56
57038;BME280;59942;49.304;8.256;2022-10-31T09:31:03;100773.03;;;14.83;84.33
57038;BME280;59942;49.304;8.256;2022-10-31T09:33:31;100769.56;;;14.83;83.50
57038;BME280;59942;49.304;8.256;2022-10-31T09:35:58;100767.38;;;14.75;82.11
57038;BME280;59942;49.304;8.256;2022-10-31T09:38:31;100772.09;;;15.00;84.16
57038;BME280;59942;49.304;8.256;2022-10-31T09:47:15;100754.88;;;15.44;81.16
57038;BME280;59942;49.304;8.256;2022-10-31T09:52:32;100752.22;;;14.98;82.20
57038;BME280;59942;49.304;8.256;2022-10-31T09:55:27;100760.31;;;15.09;81.61
57038;BME280;59942;49.304;8.256;2022-10-31T09:58:01;100760.78;;;15.48;80.76
57038;BME280;59942;49.304;8.256;2022-10-31T10:00:31;100760.03;;;15.29;83.02
57038;BME280;59942;49.304;8.256;2022-10-31T10:03:42;100759.53;;;15.85;81.02
57038;BME280;59942;49.304;8.256;2022-10-31T10:06:25;100751.81;;;16.41;81.80
57038;BME280;59942;49.304;8.256;2022-10-31T10:09:00;100754.63;;;16.38;79.41
57038;BME280;59942;49.304;8.256;2022-10-31T10:25:39;100740.31;;;17.95;76.58
57038;BME280;59942;49.304;8.256;2022-10-31T10:28:30;100736.06;;;16.99;78.34
57038;BME280;59942;49.304;8.256;2022-10-31T10:31:45;100734.09;;;17.83;76.52
57038;BME280;59942;49.304;8.256;2022-10-31T10:37:39;100723.75;;;18.20;77.60
57038;BME280;59942;49.304;8.256;2022-10-31T10:40:20;100726.50;;;18.55;76.58
57038;BME280;59942;49.304;8.256;2022-10-31T10:46:18;100725.63;;;18.81;75.60
57038;BME280;59942;49.304;8.256;2022-10-31T10:49:32;100722.06;;;18.69;75.29
57038;BME280;59942;49.304;8.256;2022-10-31T10:56:15;100715.13;;;19.05;74.78
57038;BME280;59942;49.304;8.256;2022-10-31T10:58:35;100715.25;;;19.03;73.88
57038;BME280;59942;49.304;8.256;2022-10-31T11:01:24;100706.47;;;18.91;74.00
57038;BME280;59942;49.304;8.256;2022-10-31T11:04:07;100683.16;;;18.87;73.27
57038;BME280;59942;49.304;8.256;2022-10-31T11:09:41;100688.56;;;18.22;74.82
57038;BME280;59942;49.304;8.256;2022-10-31T11:12:33;100695.38;;;18.75;72.65
57038;BME280;59942;49.304;8.256;2022-10-31T11:18:22;100686.16;;;16.88;74.71
57038;BME280;59942;49.304;8.256;2022-10-31T11:21:04;100639.03;;;16.73;73.75
57038;BME280;59942;49.304;8.256;2022-10-31T11:24:12;100667.78;;;17.55;73.71
57038;BME280;59942;49.304;8.256;2022-10-31T11:29:42;100656.66;;;18.16;73.91
57038;BME280;59942;49.304;8.256;2022-10-31T11:32:26;100615.06;;;18.22;75.71
57038;BME280;59942;49.304;8.256;2022-10-31T11:35:22;100642.41;;;18.20;71.19
57038;BME280;59942;49.304;8.256;2022-10-31T11:37:58;100640.81;;;18.54;75.90
57038;BME280;59942;49.304;8.256;2022-10-31T11:40:44;100634.41;;;18.21;76.76
57038;BME280;59942;49.304;8.256;2022-10-31T11:46:41;100614.19;;;18.83;74.04
57038;BME280;59942;49.304;8.256;2022-10-31T11:49:38;100629.50;;;19.02;72.52
57038;BME280;59942;49.304;8.256;2022-10-31T11:52:16;100617.06;;;18.80;72.41
57038;BME280;59942;49.304;8.256;2022-10-31T11:54:53;100619.88;;;18.90;72.92
57038;BME280;59942;49.304;8.256;2022-10-31T12:01:02;100621.09;;;18.97;71.97
57038;BME280;59942;49.304;8.256;2022-10-31T12:04:12;100616.84;;;19.07;71.95
57038;BME280;59942;49.304;8.256;2022-10-31T12:06:53;100614.56;;;19.03;71.64
57038;BME280;59942;49.304;8.256;2022-10-31T12:09:37;100628.63;;;18.78;66.97
57038;BME280;59942;49.304;8.256;2022-10-31T12:12:31;100625.75;;;18.32;68.97
57038;BME280;59942;49.304;8.256;2022-10-31T12:15:32;100629.75;;;18.25;71.03
57038;BME280;59942;49.304;8.256;2022-10-31T12:21:03;100609.47;;;18.03;74.85
57038;BME280;59942;49.304;8.256;2022-10-31T12:26:21;100608.00;;;18.60;74.44
57038;BME280;59942;49.304;8.256;2022-10-31T12:29:26;100582.41;;;17.64;71.40
57038;BME280;59942;49.304;8.256;2022-10-31T12:32:15;100571.50;;;17.44;72.25
57038;BME280;59942;49.304;8.256;2022-10-31T12:35:13;100561.22;;;17.80;75.31
57038;BME280;59942;49.304;8.256;2022-10-31T12:43:45;100554.13;;;18.79;72.33
57038;BME280;59942;49.304;8.256;2022-10-31T12:55:16;100529.66;;;18.78;72.07
57038;BME280;59942;49.304;8.256;2022-10-31T12:57:58;100528.00;;;18.42;71.49
57038;BME280;59942;49.304;8.256;2022-10-31T13:00:38;100516.03;;;18.73;71.87
57038;BME280;59942;49.304;8.256;2022-10-31T13:03:33;100529.03;;;18.99;71.36
57038;BME280;59942;49.304;8.256;2022-10-31T13:06:09;100508.63;;;17.94;71.05
57038;BME280;59942;49.304;8.256;2022-10-31T13:09:05;100508.22;;;17.75;73.82
57038;BME280;59942;49.304;8.256;2022-10-31T13:12:17;100518.25;;;18.55;72.69
57038;BME280;59942;49.304;8.256;2022-10-31T13:15:22;100513.53;;;19.30;69.69
57038;BME280;59942;49.304;8.256;2022-10-31T13:18:00;100517.66;;;18.87;69.97
57038;BME280;59942;49.304;8.256;2022-10-31T13:26:09;100487.56;;;20.04;67.88
57038;BME280;59942;49.304;8.256;2022-10-31T13:28:59;100512.97;;;20.26;67.59
57038;BME280;59942;49.304;8.256;2022-10-31T13:31:47;100516.59;;;21.00;64.87
57038;BME280;59942;49.304;8.256;2022-10-31T13:34:33;100515.97;;;20.87;62.34
57038;BME280;59942;49.304;8.256;2022-10-31T13:43:27;100506.63;;;19.40;66.67
57038;BME280;59942;49.304;8.256;2022-10-31T13:46:36;100505.75;;;20.72;68.28
57038;BME280;59942;49.304;8.256;2022-10-31T13:52:35;100504.16;;;20.48;60.68
57038;BME280;59942;49.304;8.256;2022-10-31T13:55:07;100500.28;;;19.88;69.44
57038;BME280;59942;49.304;8.256;2022-10-31T13:58:22;100484.69;;;20.61;68.03
57038;BME280;59942;49.304;8.256;2022-10-31T14:01:19;100496.16;;;20.92;66.56
57038;BME280;59942;49.304;8.256;2022-10-31T14:04:12;100493.50;;;20.71;66.10
57038;BME280;59942;49.304;8.256;2022-10-31T14:07:44;100478.38;;;20.31;62.32
57038;BME280;59942;49.304;8.256;2022-10-31T14:12:42;100474.53;;;19.91;67.10
57038;BME280;59942;49.304;8.256;2022-10-31T14:15:31;100475.50;;;20.34;68.06
57038;BME280;59942;49.304;8.256;2022-10-31T14:18:34;100455.72;;;20.07;66.09
57038;BME280;59942;49.304;8.256;2022-10-31T14:24:01;100459.81;;;20.00;67.39
57038;BME280;59942;49.304;8.256;2022-10-31T14:27:29;100455.47;;;20.10;67.47
57038;BME280;59942;49.304;8.256;2022-10-31T14:29:55;100475.44;;;20.13;67.44
57038;BME280;59942;49.304;8.256;2022-10-31T14:32:39;100470.13;;;19.92;66.07
57038;BME280;59942;49.304;8.256;2022-10-31T14:35:53;100482.72;;;19.32;68.66
57038;BME280;59942;49.304;8.256;2022-10-31T14:38:38;100480.34;;;19.40;69.24
57038;BME280;59942;49.304;8.256;2022-10-31T14:55:49;100435.06;;;18.20;70.70
57038;BME280;59942;49.304;8.256;2022-10-31T14:58:50;100422.28;;;18.15;71.73
57038;BME280;59942;49.304;8.256;2022-10-31T15:01:31;100426.59;;;17.79;71.50
57038;BME280;59942;49.304;8.256;2022-10-31T15:04:30;100412.94;;;16.74;76.08
57038;BME280;59942;49.304;8.256;2022-10-31T15:07:08;100417.69;;;17.82;74.24
57038;BME280;59942;49.304;8.256;2022-10-31T15:10:27;100421.50;;;18.26;72.17
57038;BME280;59942;49.304;8.256;2022-10-31T15:13:32;100425.97;;;18.48;71.06
57038;BME280;59942;49.304;8.256;2022-10-31T15:16:09;100410.00;;;17.54;74.26
57038;BME280;59942;49.304;8.256;2022-10-31T15:18:48;100392.34;;;17.69;72.11
57038;BME280;59942;49.304;8.256;2022-10-31T15:21:20;100386.13;;;17.09;74.64
57038;BME280;59942;49.304;8.256;2022-10-31T15:24:12;100381.19;;;17.05;76.13
57038;BME280;59942;49.304;8.256;2022-10-31T15:27:03;100358.28;;;17.81;72.96
57038;BME280;59942;49.304;8.256;2022-10-31T15:29:36;100383.88;;;18.14;71.00
57038;BME280;59942;49.304;8.256;2022-10-31T15:35:30;100377.31;;;16.72;75.95
57038;BME280;59942;49.304;8.256;2022-10-31T15:38:07;100328.09;;;16.25;78.07
57038;BME280;59942;49.304;8.256;2022-10-31T15:41:01;100338.78;;;15.82;81.43
57038;BME280;59942;49.304;8.256;2022-10-31T15:43:39;100320.47;;;15.82;81.19
57038;BME280;59942;49.304;8.256;2022-10-31T15:46:13;100314.59;;;15.78;81.97
57038;BME280;59942;49.304;8.256;2022-10-31T15:48:48;100308.38;;;15.67;82.62
57038;BME280;59942;49.304;8.256;2022-10-31T15:51:31;100302.47;;;15.50;83.58
57038;BME280;59942;49.304;8.256;2022-10-31T15:54:22;100289.88;;;15.42;83.76
57038;BME280;59942;49.304;8.256;2022-10-31T15:57:14;100294.69;;;16.16;80.34
57038;BME280;59942;49.304;8.256;2022-10-31T16:11:37;100366.22;;;16.42;76.74
57038;BME280;59942;49.304;8.256;2022-10-31T16:16:43;100384.81;;;16.38;76.56